Wadsworth, Texas
Current Conditions -  °F | °C
As of 4:53 AM on Saturday 25 Oct 2014 (Local Time) from KPSX Reporting Station
Clear Clear  
Wind Chill: 60°   Ceiling: Unl
Heat Index: 60°   Visibility: 10mi
Dew Point: 57°   Wind: 5mph
Humidity: 90%   Direction: 360°N
Pressure: 30.12"   Gusts: NA
Location:  28.83°N, 95.94°W
Report Text: KPSX 250953Z AUTO 36004KT 10SM CLR 16/14 A3012 RMK AO2 SLP198 T01560139
Loading
Personal Weather Stations






























Interactive Weather Map
Tropical Storm Tracking
New forecast layout! Learn more

10-Day Weather Forecast

Advertisements
Track Severe Weather on mobile